sensor_id;sensor_type;location;lat;lon;timestamp;P1;durP1;ratioP1;P2;durP2;ratioP2
19107;SDS011;9686;48.832;9.126;2022-08-18T00:01:42;4.73;;;4.33;;
19107;SDS011;9686;48.832;9.126;2022-08-18T00:04:12;4.27;;;3.87;;
19107;SDS011;9686;48.832;9.126;2022-08-18T00:06:39;4.70;;;4.30;;
19107;SDS011;9686;48.832;9.126;2022-08-18T00:09:06;6.07;;;4.30;;
19107;SDS011;9686;48.832;9.126;2022-08-18T00:11:35;4.43;;;4.03;;
19107;SDS011;9686;48.832;9.126;2022-08-18T00:14:02;4.37;;;3.97;;
19107;SDS011;9686;48.832;9.126;2022-08-18T00:16:28;3.97;;;3.47;;
19107;SDS011;9686;48.832;9.126;2022-08-18T00:18:53;4.80;;;4.30;;
19107;SDS011;9686;48.832;9.126;2022-08-18T00:21:18;4.63;;;4.13;;
19107;SDS011;9686;48.832;9.126;2022-08-18T00:23:44;5.23;;;4.40;;
19107;SDS011;9686;48.832;9.126;2022-08-18T00:26:09;5.03;;;4.63;;
19107;SDS011;9686;48.832;9.126;2022-08-18T00:28:35;5.13;;;4.50;;
19107;SDS011;9686;48.832;9.126;2022-08-18T00:31:00;5.37;;;4.87;;
19107;SDS011;9686;48.832;9.126;2022-08-18T00:33:26;4.40;;;4.00;;
19107;SDS011;9686;48.832;9.126;2022-08-18T00:35:51;4.93;;;4.47;;
19107;SDS011;9686;48.832;9.126;2022-08-18T00:38:17;5.43;;;4.77;;
19107;SDS011;9686;48.832;9.126;2022-08-18T00:40:44;4.80;;;4.40;;
19107;SDS011;9686;48.832;9.126;2022-08-18T00:43:17;5.03;;;4.63;;
19107;SDS011;9686;48.832;9.126;2022-08-18T00:45:45;4.97;;;4.30;;
19107;SDS011;9686;48.832;9.126;2022-08-18T00:48:11;5.27;;;4.77;;
19107;SDS011;9686;48.832;9.126;2022-08-18T00:50:39;5.60;;;5.07;;
19107;SDS011;9686;48.832;9.126;2022-08-18T00:55:50;4.63;;;4.27;;
19107;SDS011;9686;48.832;9.126;2022-08-18T00:58:21;5.10;;;4.50;;
19107;SDS011;9686;48.832;9.126;2022-08-18T01:00:51;5.07;;;4.67;;
19107;SDS011;9686;48.832;9.126;2022-08-18T01:03:17;5.23;;;4.73;;
19107;SDS011;9686;48.832;9.126;2022-08-18T01:05:47;5.70;;;5.10;;
19107;SDS011;9686;48.832;9.126;2022-08-18T01:08:27;5.60;;;4.67;;
19107;SDS011;9686;48.832;9.126;2022-08-18T01:10:53;5.10;;;4.60;;
19107;SDS011;9686;48.832;9.126;2022-08-18T01:13:18;5.20;;;4.67;;
19107;SDS011;9686;48.832;9.126;2022-08-18T01:15:44;4.70;;;4.30;;
19107;SDS011;9686;48.832;9.126;2022-08-18T01:18:11;8.30;;;4.73;;
19107;SDS011;9686;48.832;9.126;2022-08-18T01:24:09;5.57;;;5.07;;
19107;SDS011;9686;48.832;9.126;2022-08-18T01:26:39;5.27;;;4.73;;
19107;SDS011;9686;48.832;9.126;2022-08-18T01:29:10;5.20;;;4.70;;
19107;SDS011;9686;48.832;9.126;2022-08-18T01:31:37;5.27;;;4.67;;
19107;SDS011;9686;48.832;9.126;2022-08-18T01:34:05;4.80;;;4.40;;
19107;SDS011;9686;48.832;9.126;2022-08-18T01:36:33;5.03;;;4.63;;
19107;SDS011;9686;48.832;9.126;2022-08-18T01:39:02;4.90;;;4.50;;
19107;SDS011;9686;48.832;9.126;2022-08-18T01:41:29;5.20;;;4.80;;
19107;SDS011;9686;48.832;9.126;2022-08-18T01:43:55;4.87;;;4.47;;
19107;SDS011;9686;48.832;9.126;2022-08-18T01:46:20;5.10;;;4.60;;
19107;SDS011;9686;48.832;9.126;2022-08-18T01:48:47;4.63;;;4.23;;
19107;SDS011;9686;48.832;9.126;2022-08-18T01:51:13;4.73;;;4.33;;
19107;SDS011;9686;48.832;9.126;2022-08-18T01:53:39;5.33;;;4.83;;
19107;SDS011;9686;48.832;9.126;2022-08-18T01:56:05;5.23;;;4.77;;
19107;SDS011;9686;48.832;9.126;2022-08-18T01:58:32;4.73;;;4.33;;
19107;SDS011;9686;48.832;9.126;2022-08-18T02:00:59;6.07;;;4.50;;
19107;SDS011;9686;48.832;9.126;2022-08-18T02:03:27;5.70;;;5.03;;
19107;SDS011;9686;48.832;9.126;2022-08-18T02:05:59;5.53;;;4.77;;
19107;SDS011;9686;48.832;9.126;2022-08-18T02:08:26;4.90;;;4.40;;
19107;SDS011;9686;48.832;9.126;2022-08-18T02:10:52;5.33;;;4.83;;
19107;SDS011;9686;48.832;9.126;2022-08-18T02:13:18;5.10;;;4.70;;
19107;SDS011;9686;48.832;9.126;2022-08-18T02:15:43;4.90;;;4.40;;
19107;SDS011;9686;48.832;9.126;2022-08-18T02:18:13;5.23;;;4.73;;
19107;SDS011;9686;48.832;9.126;2022-08-18T02:20:40;5.70;;;4.63;;
19107;SDS011;9686;48.832;9.126;2022-08-18T02:23:05;5.07;;;4.67;;
19107;SDS011;9686;48.832;9.126;2022-08-18T02:25:30;5.10;;;4.60;;
19107;SDS011;9686;48.832;9.126;2022-08-18T02:27:56;4.70;;;4.30;;
19107;SDS011;9686;48.832;9.126;2022-08-18T02:30:22;5.00;;;4.60;;
19107;SDS011;9686;48.832;9.126;2022-08-18T02:32:47;6.07;;;5.57;;
19107;SDS011;9686;48.832;9.126;2022-08-18T02:35:13;6.40;;;5.50;;
19107;SDS011;9686;48.832;9.126;2022-08-18T02:37:38;5.43;;;5.03;;
19107;SDS011;9686;48.832;9.126;2022-08-18T02:40:05;5.87;;;5.27;;
19107;SDS011;9686;48.832;9.126;2022-08-18T02:42:30;5.67;;;5.17;;
19107;SDS011;9686;48.832;9.126;2022-08-18T02:44:56;5.97;;;4.87;;
19107;SDS011;9686;48.832;9.126;2022-08-18T02:47:21;5.97;;;5.23;;
19107;SDS011;9686;48.832;9.126;2022-08-18T02:49:47;5.57;;;5.07;;
19107;SDS011;9686;48.832;9.126;2022-08-18T02:52:13;6.03;;;5.13;;
19107;SDS011;9686;48.832;9.126;2022-08-18T02:54:39;5.57;;;5.07;;
19107;SDS011;9686;48.832;9.126;2022-08-18T02:57:05;5.77;;;5.27;;
19107;SDS011;9686;48.832;9.126;2022-08-18T02:59:32;4.80;;;4.37;;
19107;SDS011;9686;48.832;9.126;2022-08-18T03:01:57;5.40;;;4.90;;
19107;SDS011;9686;48.832;9.126;2022-08-18T03:04:24;7.13;;;5.10;;
19107;SDS011;9686;48.832;9.126;2022-08-18T03:06:52;5.30;;;4.87;;
19107;SDS011;9686;48.832;9.126;2022-08-18T03:09:18;5.20;;;4.70;;
19107;SDS011;9686;48.832;9.126;2022-08-18T03:11:44;5.63;;;5.13;;
19107;SDS011;9686;48.832;9.126;2022-08-18T03:14:10;4.87;;;4.43;;
19107;SDS011;9686;48.832;9.126;2022-08-18T03:16:36;5.43;;;4.57;;
19107;SDS011;9686;48.832;9.126;2022-08-18T03:19:04;5.03;;;4.53;;
19107;SDS011;9686;48.832;9.126;2022-08-18T03:21:30;5.67;;;5.17;;
19107;SDS011;9686;48.832;9.126;2022-08-18T03:23:59;5.47;;;4.97;;
19107;SDS011;9686;48.832;9.126;2022-08-18T03:26:25;5.13;;;4.70;;
19107;SDS011;9686;48.832;9.126;2022-08-18T03:28:52;6.40;;;5.10;;
19107;SDS011;9686;48.832;9.126;2022-08-18T03:31:19;5.30;;;4.80;;
19107;SDS011;9686;48.832;9.126;2022-08-18T03:33:47;5.27;;;4.77;;
19107;SDS011;9686;48.832;9.126;2022-08-18T03:36:14;6.73;;;5.43;;
19107;SDS011;9686;48.832;9.126;2022-08-18T03:38:41;5.73;;;5.23;;
19107;SDS011;9686;48.832;9.126;2022-08-18T03:41:09;5.50;;;5.00;;
19107;SDS011;9686;48.832;9.126;2022-08-18T03:43:36;5.60;;;5.00;;
19107;SDS011;9686;48.832;9.126;2022-08-18T03:46:06;5.43;;;4.83;;
19107;SDS011;9686;48.832;9.126;2022-08-18T03:48:35;5.53;;;5.03;;
19107;SDS011;9686;48.832;9.126;2022-08-18T03:51:05;6.53;;;5.93;;
19107;SDS011;9686;48.832;9.126;2022-08-18T03:53:33;5.67;;;5.17;;
19107;SDS011;9686;48.832;9.126;2022-08-18T03:56:00;6.27;;;5.30;;
19107;SDS011;9686;48.832;9.126;2022-08-18T03:58:26;5.30;;;4.80;;
19107;SDS011;9686;48.832;9.126;2022-08-18T04:00:51;7.57;;;5.73;;
19107;SDS011;9686;48.832;9.126;2022-08-18T04:03:17;5.57;;;5.07;;
19107;SDS011;9686;48.832;9.126;2022-08-18T04:05:42;5.50;;;5.00;;
19107;SDS011;9686;48.832;9.126;2022-08-18T04:08:07;5.73;;;5.10;;
19107;SDS011;9686;48.832;9.126;2022-08-18T04:10:33;5.90;;;5.40;;
19107;SDS011;9686;48.832;9.126;2022-08-18T04:12:59;5.27;;;4.77;;
19107;SDS011;9686;48.832;9.126;2022-08-18T04:15:26;5.90;;;5.37;;
19107;SDS011;9686;48.832;9.126;2022-08-18T04:17:51;6.50;;;5.90;;
19107;SDS011;9686;48.832;9.126;2022-08-18T04:20:17;5.80;;;5.30;;
19107;SDS011;9686;48.832;9.126;2022-08-18T04:22:42;6.70;;;6.07;;
19107;SDS011;9686;48.832;9.126;2022-08-18T04:25:09;5.70;;;5.20;;
19107;SDS011;9686;48.832;9.126;2022-08-18T04:27:35;5.90;;;5.30;;
19107;SDS011;9686;48.832;9.126;2022-08-18T04:30:03;6.30;;;5.07;;
19107;SDS011;9686;48.832;9.126;2022-08-18T04:32:30;6.73;;;5.67;;
19107;SDS011;9686;48.832;9.126;2022-08-18T04:34:55;6.63;;;6.03;;
19107;SDS011;9686;48.832;9.126;2022-08-18T04:37:21;5.57;;;5.17;;
19107;SDS011;9686;48.832;9.126;2022-08-18T04:39:46;6.43;;;5.53;;
19107;SDS011;9686;48.832;9.126;2022-08-18T04:42:12;5.67;;;5.20;;
19107;SDS011;9686;48.832;9.126;2022-08-18T04:44:38;6.20;;;5.60;;
19107;SDS011;9686;48.832;9.126;2022-08-18T04:47:04;7.03;;;5.60;;
19107;SDS011;9686;48.832;9.126;2022-08-18T04:49:31;6.77;;;6.17;;
19107;SDS011;9686;48.832;9.126;2022-08-18T04:51:57;6.23;;;5.53;;
19107;SDS011;9686;48.832;9.126;2022-08-18T04:54:42;5.83;;;5.30;;
19107;SDS011;9686;48.832;9.126;2022-08-18T04:57:08;6.10;;;5.57;;
19107;SDS011;9686;48.832;9.126;2022-08-18T04:59:39;6.10;;;5.60;;
19107;SDS011;9686;48.832;9.126;2022-08-18T05:02:06;6.80;;;5.97;;
19107;SDS011;9686;48.832;9.126;2022-08-18T05:04:33;7.20;;;5.70;;
19107;SDS011;9686;48.832;9.126;2022-08-18T05:07:01;6.53;;;5.90;;
19107;SDS011;9686;48.832;9.126;2022-08-18T05:09:27;7.00;;;5.47;;
19107;SDS011;9686;48.832;9.126;2022-08-18T05:11:53;7.07;;;5.43;;
19107;SDS011;9686;48.832;9.126;2022-08-18T05:14:18;6.70;;;5.90;;
19107;SDS011;9686;48.832;9.126;2022-08-18T05:16:45;6.30;;;5.47;;
19107;SDS011;9686;48.832;9.126;2022-08-18T05:19:10;7.80;;;5.87;;
19107;SDS011;9686;48.832;9.126;2022-08-18T05:21:36;7.50;;;5.47;;
19107;SDS011;9686;48.832;9.126;2022-08-18T05:24:06;6.20;;;5.60;;
19107;SDS011;9686;48.832;9.126;2022-08-18T05:26:33;6.53;;;5.93;;
19107;SDS011;9686;48.832;9.126;2022-08-18T05:28:59;7.00;;;6.10;;
19107;SDS011;9686;48.832;9.126;2022-08-18T05:31:25;6.03;;;5.43;;
19107;SDS011;9686;48.832;9.126;2022-08-18T05:33:53;6.53;;;5.90;;
19107;SDS011;9686;48.832;9.126;2022-08-18T05:41:40;6.40;;;5.80;;
19107;SDS011;9686;48.832;9.126;2022-08-18T05:44:11;6.30;;;5.73;;
19107;SDS011;9686;48.832;9.126;2022-08-18T05:49:11;6.13;;;5.53;;
19107;SDS011;9686;48.832;9.126;2022-08-18T05:51:51;6.20;;;5.50;;
19107;SDS011;9686;48.832;9.126;2022-08-18T05:54:54;7.77;;;6.10;;
19107;SDS011;9686;48.832;9.126;2022-08-18T05:57:49;6.03;;;5.43;;
19107;SDS011;9686;48.832;9.126;2022-08-18T06:00:19;10.30;;;5.43;;
19107;SDS011;9686;48.832;9.126;2022-08-18T06:02:51;6.10;;;5.50;;
19107;SDS011;9686;48.832;9.126;2022-08-18T06:05:55;5.97;;;5.37;;
19107;SDS011;9686;48.832;9.126;2022-08-18T06:08:18;6.70;;;5.83;;
19107;SDS011;9686;48.832;9.126;2022-08-18T06:10:47;6.47;;;5.87;;
19107;SDS011;9686;48.832;9.126;2022-08-18T06:13:14;8.17;;;6.07;;
19107;SDS011;9686;48.832;9.126;2022-08-18T06:15:54;6.43;;;5.83;;
19107;SDS011;9686;48.832;9.126;2022-08-18T06:23:52;6.20;;;5.60;;
19107;SDS011;9686;48.832;9.126;2022-08-18T06:29:09;7.23;;;5.77;;
19107;SDS011;9686;48.832;9.126;2022-08-18T06:31:44;6.30;;;5.70;;
19107;SDS011;9686;48.832;9.126;2022-08-18T06:37:26;7.47;;;5.30;;
19107;SDS011;9686;48.832;9.126;2022-08-18T06:39:57;6.60;;;5.90;;
19107;SDS011;9686;48.832;9.126;2022-08-18T06:42:23;9.30;;;5.60;;
19107;SDS011;9686;48.832;9.126;2022-08-18T06:44:59;7.70;;;6.80;;
19107;SDS011;9686;48.832;9.126;2022-08-18T06:50:23;6.80;;;6.10;;
19107;SDS011;9686;48.832;9.126;2022-08-18T06:52:55;6.37;;;5.57;;
19107;SDS011;9686;48.832;9.126;2022-08-18T06:55:43;6.30;;;5.70;;
19107;SDS011;9686;48.832;9.126;2022-08-18T07:03:17;7.40;;;5.80;;
19107;SDS011;9686;48.832;9.126;2022-08-18T07:05:58;5.67;;;4.70;;
19107;SDS011;9686;48.832;9.126;2022-08-18T07:11:22;5.47;;;4.97;;
19107;SDS011;9686;48.832;9.126;2022-08-18T07:13:53;5.47;;;5.00;;
19107;SDS011;9686;48.832;9.126;2022-08-18T07:16:31;5.03;;;4.53;;
19107;SDS011;9686;48.832;9.126;2022-08-18T07:19:06;6.23;;;5.47;;
19107;SDS011;9686;48.832;9.126;2022-08-18T07:21:32;5.53;;;5.07;;
19107;SDS011;9686;48.832;9.126;2022-08-18T07:24:05;5.80;;;5.30;;
19107;SDS011;9686;48.832;9.126;2022-08-18T07:29:24;6.40;;;5.40;;
19107;SDS011;9686;48.832;9.126;2022-08-18T07:31:50;5.90;;;5.30;;
19107;SDS011;9686;48.832;9.126;2022-08-18T07:36:53;5.33;;;4.87;;
19107;SDS011;9686;48.832;9.126;2022-08-18T07:39:26;6.10;;;5.27;;
19107;SDS011;9686;48.832;9.126;2022-08-18T07:42:02;5.73;;;5.23;;
19107;SDS011;9686;48.832;9.126;2022-08-18T07:44:35;5.60;;;5.17;;
19107;SDS011;9686;48.832;9.126;2022-08-18T07:47:03;6.63;;;5.90;;
19107;SDS011;9686;48.832;9.126;2022-08-18T07:49:36;6.83;;;5.50;;
19107;SDS011;9686;48.832;9.126;2022-08-18T07:57:18;6.73;;;5.50;;
19107;SDS011;9686;48.832;9.126;2022-08-18T08:00:14;6.57;;;5.87;;
19107;SDS011;9686;48.832;9.126;2022-08-18T08:02:51;6.53;;;5.40;;
19107;SDS011;9686;48.832;9.126;2022-08-18T08:11:07;5.40;;;5.00;;
19107;SDS011;9686;48.832;9.126;2022-08-18T08:16:48;6.87;;;5.60;;
19107;SDS011;9686;48.832;9.126;2022-08-18T08:22:04;6.53;;;5.93;;
19107;SDS011;9686;48.832;9.126;2022-08-18T08:24:54;5.50;;;5.00;;
19107;SDS011;9686;48.832;9.126;2022-08-18T08:30:24;5.70;;;5.20;;
19107;SDS011;9686;48.832;9.126;2022-08-18T08:35:45;5.80;;;5.20;;
19107;SDS011;9686;48.832;9.126;2022-08-18T08:38:17;7.07;;;5.50;;
19107;SDS011;9686;48.832;9.126;2022-08-18T08:40:56;5.90;;;5.40;;
19107;SDS011;9686;48.832;9.126;2022-08-18T08:43:37;5.60;;;5.00;;
19107;SDS011;9686;48.832;9.126;2022-08-18T08:46:18;5.33;;;4.80;;
19107;SDS011;9686;48.832;9.126;2022-08-18T08:48:48;5.63;;;5.10;;
19107;SDS011;9686;48.832;9.126;2022-08-18T08:51:33;6.13;;;5.47;;
19107;SDS011;9686;48.832;9.126;2022-08-18T08:54:19;6.97;;;5.50;;
19107;SDS011;9686;48.832;9.126;2022-08-18T08:56:49;6.20;;;5.60;;
19107;SDS011;9686;48.832;9.126;2022-08-18T08:59:18;7.00;;;6.17;;
19107;SDS011;9686;48.832;9.126;2022-08-18T09:10:37;7.83;;;5.60;;
19107;SDS011;9686;48.832;9.126;2022-08-18T09:22:03;6.50;;;5.90;;
19107;SDS011;9686;48.832;9.126;2022-08-18T09:24:44;7.50;;;6.77;;
19107;SDS011;9686;48.832;9.126;2022-08-18T09:30:36;7.30;;;6.33;;
19107;SDS011;9686;48.832;9.126;2022-08-18T09:33:20;7.97;;;7.17;;
19107;SDS011;9686;48.832;9.126;2022-08-18T09:38:55;9.37;;;6.13;;
19107;SDS011;9686;48.832;9.126;2022-08-18T09:41:47;7.40;;;6.57;;
19107;SDS011;9686;48.832;9.126;2022-08-18T09:47:11;7.57;;;6.87;;
19107;SDS011;9686;48.832;9.126;2022-08-18T09:57:23;8.17;;;7.47;;
19107;SDS011;9686;48.832;9.126;2022-08-18T10:07:41;8.47;;;7.60;;
19107;SDS011;9686;48.832;9.126;2022-08-18T10:23:40;8.67;;;7.77;;
19107;SDS011;9686;48.832;9.126;2022-08-18T10:36:53;8.47;;;7.00;;
19107;SDS011;9686;48.832;9.126;2022-08-18T10:39:23;8.87;;;6.63;;
19107;SDS011;9686;48.832;9.126;2022-08-18T10:44:36;7.47;;;6.63;;
19107;SDS011;9686;48.832;9.126;2022-08-18T10:47:07;8.43;;;6.70;;
19107;SDS011;9686;48.832;9.126;2022-08-18T10:49:34;8.13;;;7.43;;
19107;SDS011;9686;48.832;9.126;2022-08-18T10:52:09;7.83;;;6.53;;
19107;SDS011;9686;48.832;9.126;2022-08-18T10:55:08;7.23;;;6.53;;
19107;SDS011;9686;48.832;9.126;2022-08-18T10:58:01;7.30;;;5.83;;
19107;SDS011;9686;48.832;9.126;2022-08-18T11:06:25;8.83;;;7.93;;
19107;SDS011;9686;48.832;9.126;2022-08-18T11:08:56;8.77;;;7.80;;
19107;SDS011;9686;48.832;9.126;2022-08-18T11:11:26;7.93;;;7.13;;
19107;SDS011;9686;48.832;9.126;2022-08-18T11:14:07;7.40;;;6.33;;
19107;SDS011;9686;48.832;9.126;2022-08-18T11:19:24;7.63;;;6.93;;
19107;SDS011;9686;48.832;9.126;2022-08-18T11:21:50;9.17;;;8.27;;
19107;SDS011;9686;48.832;9.126;2022-08-18T11:29:38;8.07;;;7.30;;
19107;SDS011;9686;48.832;9.126;2022-08-18T11:32:10;9.40;;;8.50;;
19107;SDS011;9686;48.832;9.126;2022-08-18T11:40:10;7.70;;;7.10;;
19107;SDS011;9686;48.832;9.126;2022-08-18T11:42:52;8.37;;;7.53;;
19107;SDS011;9686;48.832;9.126;2022-08-18T11:48:18;8.55;;;7.65;;
19107;SDS011;9686;48.832;9.126;2022-08-18T11:51:32;8.20;;;7.00;;
19107;SDS011;9686;48.832;9.126;2022-08-18T11:53:36;7.83;;;7.00;;
19107;SDS011;9686;48.832;9.126;2022-08-18T11:56:20;7.50;;;6.80;;
19107;SDS011;9686;48.832;9.126;2022-08-18T12:04:06;7.03;;;6.43;;
19107;SDS011;9686;48.832;9.126;2022-08-18T12:06:35;7.17;;;6.40;;
19107;SDS011;9686;48.832;9.126;2022-08-18T12:09:05;9.00;;;7.13;;
19107;SDS011;9686;48.832;9.126;2022-08-18T12:11:48;7.60;;;6.90;;
19107;SDS011;9686;48.832;9.126;2022-08-18T12:14:20;7.28;;;6.57;;
19107;SDS011;9686;48.832;9.126;2022-08-18T12:16:48;6.70;;;6.10;;
19107;SDS011;9686;48.832;9.126;2022-08-18T12:19:14;7.47;;;6.68;;
19107;SDS011;9686;48.832;9.126;2022-08-18T12:21:44;7.40;;;6.70;;
19107;SDS011;9686;48.832;9.126;2022-08-18T12:24:20;8.52;;;7.57;;
19107;SDS011;9686;48.832;9.126;2022-08-18T12:26:48;8.82;;;7.65;;
19107;SDS011;9686;48.832;9.126;2022-08-18T12:29:14;8.00;;;6.83;;
19107;SDS011;9686;48.832;9.126;2022-08-18T12:31:42;10.80;;;7.15;;
19107;SDS011;9686;48.832;9.126;2022-08-18T12:34:08;8.00;;;6.67;;
19107;SDS011;9686;48.832;9.126;2022-08-18T12:36:33;6.55;;;5.90;;
19107;SDS011;9686;48.832;9.126;2022-08-18T12:38:59;7.65;;;6.88;;
19107;SDS011;9686;48.832;9.126;2022-08-18T12:41:24;7.93;;;6.47;;
19107;SDS011;9686;48.832;9.126;2022-08-18T12:43:50;6.70;;;6.10;;
19107;SDS011;9686;48.832;9.126;2022-08-18T12:46:17;8.67;;;6.33;;
19107;SDS011;9686;48.832;9.126;2022-08-18T12:48:43;9.73;;;6.60;;
19107;SDS011;9686;48.832;9.126;2022-08-18T12:51:08;7.20;;;6.50;;
19107;SDS011;9686;48.832;9.126;2022-08-18T12:53:33;6.63;;;6.03;;
19107;SDS011;9686;48.832;9.126;2022-08-18T12:55:59;7.78;;;7.07;;
19107;SDS011;9686;48.832;9.126;2022-08-18T12:58:25;7.47;;;6.78;;
19107;SDS011;9686;48.832;9.126;2022-08-18T13:00:51;7.35;;;6.75;;
19107;SDS011;9686;48.832;9.126;2022-08-18T13:03:16;6.83;;;6.23;;
19107;SDS011;9686;48.832;9.126;2022-08-18T13:05:43;6.83;;;6.20;;
19107;SDS011;9686;48.832;9.126;2022-08-18T13:08:11;7.40;;;6.70;;
19107;SDS011;9686;48.832;9.126;2022-08-18T13:10:41;7.07;;;6.40;;
19107;SDS011;9686;48.832;9.126;2022-08-18T13:13:06;7.83;;;7.03;;
19107;SDS011;9686;48.832;9.126;2022-08-18T13:15:32;7.47;;;6.78;;
19107;SDS011;9686;48.832;9.126;2022-08-18T13:18:00;6.80;;;6.20;;
19107;SDS011;9686;48.832;9.126;2022-08-18T13:20:26;7.97;;;7.27;;
19107;SDS011;9686;48.832;9.126;2022-08-18T13:22:52;8.20;;;7.40;;
19107;SDS011;9686;48.832;9.126;2022-08-18T13:25:18;9.03;;;7.07;;
19107;SDS011;9686;48.832;9.126;2022-08-18T13:27:44;8.60;;;6.90;;
19107;SDS011;9686;48.832;9.126;2022-08-18T13:30:11;8.23;;;7.43;;
19107;SDS011;9686;48.832;9.126;2022-08-18T13:32:38;8.43;;;7.70;;
19107;SDS011;9686;48.832;9.126;2022-08-18T13:35:05;9.27;;;6.72;;
19107;SDS011;9686;48.832;9.126;2022-08-18T13:37:31;9.52;;;7.13;;
19107;SDS011;9686;48.832;9.126;2022-08-18T13:39:58;8.40;;;6.35;;
19107;SDS011;9686;48.832;9.126;2022-08-18T13:42:25;6.68;;;5.88;;
19107;SDS011;9686;48.832;9.126;2022-08-18T13:45:02;7.45;;;6.30;;
19107;SDS011;9686;48.832;9.126;2022-08-18T13:47:29;7.63;;;6.28;;
19107;SDS011;9686;48.832;9.126;2022-08-18T13:49:56;7.32;;;6.47;;
19107;SDS011;9686;48.832;9.126;2022-08-18T13:52:21;8.48;;;6.28;;
19107;SDS011;9686;48.832;9.126;2022-08-18T13:54:46;6.70;;;5.95;;
19107;SDS011;9686;48.832;9.126;2022-08-18T13:57:12;6.68;;;6.10;;
19107;SDS011;9686;48.832;9.126;2022-08-18T13:59:37;7.97;;;6.37;;
19107;SDS011;9686;48.832;9.126;2022-08-18T14:02:04;6.68;;;6.18;;
19107;SDS011;9686;48.832;9.126;2022-08-18T14:04:32;6.50;;;5.97;;
19107;SDS011;9686;48.832;9.126;2022-08-18T14:07:00;7.68;;;5.90;;
19107;SDS011;9686;48.832;9.126;2022-08-18T14:09:26;6.72;;;6.03;;
19107;SDS011;9686;48.832;9.126;2022-08-18T14:11:53;6.82;;;6.15;;
19107;SDS011;9686;48.832;9.126;2022-08-18T14:14:19;6.57;;;5.97;;
19107;SDS011;9686;48.832;9.126;2022-08-18T14:16:44;6.50;;;5.90;;
19107;SDS011;9686;48.832;9.126;2022-08-18T14:19:10;7.40;;;6.70;;
19107;SDS011;9686;48.832;9.126;2022-08-18T14:21:55;6.97;;;6.28;;
19107;SDS011;9686;48.832;9.126;2022-08-18T14:24:40;6.55;;;5.95;;
19107;SDS011;9686;48.832;9.126;2022-08-18T14:27:28;5.60;;;5.10;;
19107;SDS011;9686;48.832;9.126;2022-08-18T14:29:56;6.03;;;5.43;;
19107;SDS011;9686;48.832;9.126;2022-08-18T14:32:23;6.18;;;5.63;;
19107;SDS011;9686;48.832;9.126;2022-08-18T14:34:54;6.25;;;5.75;;
19107;SDS011;9686;48.832;9.126;2022-08-18T14:37:21;7.70;;;6.20;;
19107;SDS011;9686;48.832;9.126;2022-08-18T14:39:46;6.78;;;5.53;;
19107;SDS011;9686;48.832;9.126;2022-08-18T14:42:13;5.90;;;5.10;;
19107;SDS011;9686;48.832;9.126;2022-08-18T14:44:39;5.57;;;5.03;;
19107;SDS011;9686;48.832;9.126;2022-08-18T14:47:04;6.60;;;5.63;;
19107;SDS011;9686;48.832;9.126;2022-08-18T14:49:30;6.25;;;5.65;;
19107;SDS011;9686;48.832;9.126;2022-08-18T14:51:58;5.88;;;5.30;;
19107;SDS011;9686;48.832;9.126;2022-08-18T14:54:25;5.38;;;4.90;;
19107;SDS011;9686;48.832;9.126;2022-08-18T14:56:50;6.70;;;6.13;;
19107;SDS011;9686;48.832;9.126;2022-08-18T14:59:15;5.82;;;5.32;;
19107;SDS011;9686;48.832;9.126;2022-08-18T15:01:41;6.47;;;5.80;;
19107;SDS011;9686;48.832;9.126;2022-08-18T15:04:07;6.30;;;5.70;;
19107;SDS011;9686;48.832;9.126;2022-08-18T15:06:34;6.15;;;5.57;;
19107;SDS011;9686;48.832;9.126;2022-08-18T15:09:00;5.68;;;5.18;;
19107;SDS011;9686;48.832;9.126;2022-08-18T15:11:25;6.03;;;5.43;;
19107;SDS011;9686;48.832;9.126;2022-08-18T15:13:51;6.63;;;5.25;;
19107;SDS011;9686;48.832;9.126;2022-08-18T15:16:16;5.93;;;5.43;;
19107;SDS011;9686;48.832;9.126;2022-08-18T15:18:42;6.25;;;5.45;;
19107;SDS011;9686;48.832;9.126;2022-08-18T15:21:09;6.25;;;5.65;;
19107;SDS011;9686;48.832;9.126;2022-08-18T15:23:54;6.07;;;5.55;;
19107;SDS011;9686;48.832;9.126;2022-08-18T15:26:38;6.30;;;5.45;;
19107;SDS011;9686;48.832;9.126;2022-08-18T15:29:03;9.65;;;6.03;;
19107;SDS011;9686;48.832;9.126;2022-08-18T15:31:33;6.35;;;5.70;;
19107;SDS011;9686;48.832;9.126;2022-08-18T15:33:59;5.82;;;5.32;;
19107;SDS011;9686;48.832;9.126;2022-08-18T15:36:25;5.63;;;5.00;;
19107;SDS011;9686;48.832;9.126;2022-08-18T15:38:51;5.95;;;5.45;;
19107;SDS011;9686;48.832;9.126;2022-08-18T15:44:09;5.88;;;5.32;;
19107;SDS011;9686;48.832;9.126;2022-08-18T15:46:35;5.45;;;5.05;;
19107;SDS011;9686;48.832;9.126;2022-08-18T15:49:02;6.35;;;5.75;;
19107;SDS011;9686;48.832;9.126;2022-08-18T15:51:30;5.63;;;5.13;;
19107;SDS011;9686;48.832;9.126;2022-08-18T15:53:56;5.82;;;5.13;;
19107;SDS011;9686;48.832;9.126;2022-08-18T15:56:22;6.22;;;4.82;;
19107;SDS011;9686;48.832;9.126;2022-08-18T15:58:49;7.28;;;5.18;;
19107;SDS011;9686;48.832;9.126;2022-08-18T16:01:16;5.47;;;4.97;;
19107;SDS011;9686;48.832;9.126;2022-08-18T16:03:44;7.35;;;5.72;;
19107;SDS011;9686;48.832;9.126;2022-08-18T16:06:13;6.60;;;5.07;;
19107;SDS011;9686;48.832;9.126;2022-08-18T16:08:40;5.72;;;5.22;;
19107;SDS011;9686;48.832;9.126;2022-08-18T16:11:07;6.43;;;5.10;;
19107;SDS011;9686;48.832;9.126;2022-08-18T16:13:35;5.78;;;5.25;;
19107;SDS011;9686;48.832;9.126;2022-08-18T16:16:07;5.85;;;5.35;;
19107;SDS011;9686;48.832;9.126;2022-08-18T16:18:34;6.10;;;5.40;;
19107;SDS011;9686;48.832;9.126;2022-08-18T16:21:06;5.70;;;5.15;;
19107;SDS011;9686;48.832;9.126;2022-08-18T16:23:41;5.22;;;4.82;;
19107;SDS011;9686;48.832;9.126;2022-08-18T16:26:09;6.10;;;5.53;;
19107;SDS011;9686;48.832;9.126;2022-08-18T16:28:39;5.55;;;4.97;;
19107;SDS011;9686;48.832;9.126;2022-08-18T16:31:06;6.13;;;4.60;;
19107;SDS011;9686;48.832;9.126;2022-08-18T16:33:32;5.13;;;4.63;;
19107;SDS011;9686;48.832;9.126;2022-08-18T16:36:03;5.40;;;5.00;;
19107;SDS011;9686;48.832;9.126;2022-08-18T16:38:30;9.13;;;5.13;;
19107;SDS011;9686;48.832;9.126;2022-08-18T16:41:02;5.47;;;4.97;;
19107;SDS011;9686;48.832;9.126;2022-08-18T16:43:31;6.17;;;5.67;;
19107;SDS011;9686;48.832;9.126;2022-08-18T16:45:57;12.82;;;5.93;;
19107;SDS011;9686;48.832;9.126;2022-08-18T16:48:22;6.57;;;5.97;;
19107;SDS011;9686;48.832;9.126;2022-08-18T16:50:48;7.75;;;5.90;;
19107;SDS011;9686;48.832;9.126;2022-08-18T16:53:15;7.20;;;6.60;;
19107;SDS011;9686;48.832;9.126;2022-08-18T16:55:41;6.72;;;6.13;;
19107;SDS011;9686;48.832;9.126;2022-08-18T16:58:07;8.20;;;5.78;;
19107;SDS011;9686;48.832;9.126;2022-08-18T17:00:53;6.40;;;5.77;;
19107;SDS011;9686;48.832;9.126;2022-08-18T17:03:38;6.40;;;5.80;;
19107;SDS011;9686;48.832;9.126;2022-08-18T17:06:22;5.90;;;5.40;;
19107;SDS011;9686;48.832;9.126;2022-08-18T17:08:53;7.70;;;5.93;;
19107;SDS011;9686;48.832;9.126;2022-08-18T17:11:21;7.57;;;6.47;;
19107;SDS011;9686;48.832;9.126;2022-08-18T17:13:48;5.97;;;5.47;;
19107;SDS011;9686;48.832;9.126;2022-08-18T17:16:15;6.40;;;5.80;;
19107;SDS011;9686;48.832;9.126;2022-08-18T17:18:42;7.03;;;6.17;;
19107;SDS011;9686;48.832;9.126;2022-08-18T17:21:10;6.90;;;5.83;;
19107;SDS011;9686;48.832;9.126;2022-08-18T17:23:37;6.73;;;6.13;;
19107;SDS011;9686;48.832;9.126;2022-08-18T17:26:03;6.23;;;5.73;;
19107;SDS011;9686;48.832;9.126;2022-08-18T17:28:41;8.70;;;6.20;;
19107;SDS011;9686;48.832;9.126;2022-08-18T17:31:09;6.13;;;5.53;;
19107;SDS011;9686;48.832;9.126;2022-08-18T17:33:36;6.90;;;6.30;;
19107;SDS011;9686;48.832;9.126;2022-08-18T17:36:05;6.60;;;6.10;;
19107;SDS011;9686;48.832;9.126;2022-08-18T17:38:43;6.83;;;6.23;;
19107;SDS011;9686;48.832;9.126;2022-08-18T17:41:09;5.93;;;5.43;;
19107;SDS011;9686;48.832;9.126;2022-08-18T17:43:36;7.50;;;6.80;;
19107;SDS011;9686;48.832;9.126;2022-08-18T17:48:37;8.70;;;7.57;;
19107;SDS011;9686;48.832;9.126;2022-08-18T17:53:58;8.37;;;7.57;;
19107;SDS011;9686;48.832;9.126;2022-08-18T17:56:56;9.97;;;7.40;;
19107;SDS011;9686;48.832;9.126;2022-08-18T17:59:27;8.67;;;7.83;;
19107;SDS011;9686;48.832;9.126;2022-08-18T18:02:15;9.37;;;8.47;;
19107;SDS011;9686;48.832;9.126;2022-08-18T18:04:44;9.40;;;8.37;;